sensor_id;sensor_type;location;lat;lon;timestamp;P1;durP1;ratioP1;P2;durP2;ratioP2
6195;SDS011;3131;42.630;23.382;2023-05-07T00:01:56;6.03;;;4.03;;
6195;SDS011;3131;42.630;23.382;2023-05-07T00:04:23;5.47;;;3.70;;
6195;SDS011;3131;42.630;23.382;2023-05-07T00:06:51;4.83;;;3.73;;
6195;SDS011;3131;42.630;23.382;2023-05-07T00:09:18;6.33;;;3.90;;
6195;SDS011;3131;42.630;23.382;2023-05-07T00:11:46;8.93;;;4.03;;
6195;SDS011;3131;42.630;23.382;2023-05-07T00:14:14;5.83;;;3.70;;
6195;SDS011;3131;42.630;23.382;2023-05-07T00:16:41;4.90;;;3.90;;
6195;SDS011;3131;42.630;23.382;2023-05-07T00:19:09;5.97;;;4.47;;
6195;SDS011;3131;42.630;23.382;2023-05-07T00:21:37;6.77;;;4.70;;
6195;SDS011;3131;42.630;23.382;2023-05-07T00:24:05;8.70;;;5.90;;
6195;SDS011;3131;42.630;23.382;2023-05-07T00:26:33;10.13;;;5.47;;
6195;SDS011;3131;42.630;23.382;2023-05-07T00:29:01;10.30;;;5.80;;
6195;SDS011;3131;42.630;23.382;2023-05-07T00:31:28;10.20;;;5.90;;
6195;SDS011;3131;42.630;23.382;2023-05-07T00:33:56;14.37;;;7.13;;
6195;SDS011;3131;42.630;23.382;2023-05-07T00:36:24;9.87;;;6.33;;
6195;SDS011;3131;42.630;23.382;2023-05-07T00:38:53;13.63;;;7.90;;
6195;SDS011;3131;42.630;23.382;2023-05-07T00:41:21;10.90;;;7.17;;
6195;SDS011;3131;42.630;23.382;2023-05-07T00:43:49;14.70;;;6.77;;
6195;SDS011;3131;42.630;23.382;2023-05-07T00:46:17;6.50;;;4.90;;
6195;SDS011;3131;42.630;23.382;2023-05-07T00:48:46;7.33;;;4.30;;
6195;SDS011;3131;42.630;23.382;2023-05-07T00:51:14;6.73;;;4.33;;
6195;SDS011;3131;42.630;23.382;2023-05-07T00:53:42;4.70;;;4.07;;
6195;SDS011;3131;42.630;23.382;2023-05-07T00:56:10;5.33;;;3.43;;
6195;SDS011;3131;42.630;23.382;2023-05-07T00:58:38;3.67;;;2.63;;
6195;SDS011;3131;42.630;23.382;2023-05-07T01:01:06;4.30;;;3.03;;
6195;SDS011;3131;42.630;23.382;2023-05-07T01:03:33;10.43;;;4.40;;
6195;SDS011;3131;42.630;23.382;2023-05-07T01:06:01;5.23;;;3.77;;
6195;SDS011;3131;42.630;23.382;2023-05-07T01:08:29;4.57;;;3.80;;
6195;SDS011;3131;42.630;23.382;2023-05-07T01:10:57;6.00;;;4.60;;
6195;SDS011;3131;42.630;23.382;2023-05-07T01:13:25;4.30;;;3.20;;
6195;SDS011;3131;42.630;23.382;2023-05-07T01:15:52;5.03;;;4.17;;
6195;SDS011;3131;42.630;23.382;2023-05-07T01:18:20;8.03;;;4.43;;
6195;SDS011;3131;42.630;23.382;2023-05-07T01:20:48;7.53;;;3.87;;
6195;SDS011;3131;42.630;23.382;2023-05-07T01:23:16;6.10;;;4.30;;
6195;SDS011;3131;42.630;23.382;2023-05-07T01:25:48;6.73;;;4.80;;
6195;SDS011;3131;42.630;23.382;2023-05-07T01:28:17;9.23;;;4.90;;
6195;SDS011;3131;42.630;23.382;2023-05-07T01:30:46;5.83;;;3.97;;
6195;SDS011;3131;42.630;23.382;2023-05-07T01:33:14;3.93;;;2.67;;
6195;SDS011;3131;42.630;23.382;2023-05-07T01:35:43;3.97;;;3.43;;
6195;SDS011;3131;42.630;23.382;2023-05-07T01:38:12;2.43;;;2.23;;
6195;SDS011;3131;42.630;23.382;2023-05-07T01:40:40;6.00;;;4.37;;
6195;SDS011;3131;42.630;23.382;2023-05-07T01:43:08;4.50;;;3.40;;
6195;SDS011;3131;42.630;23.382;2023-05-07T01:45:36;4.87;;;3.87;;
6195;SDS011;3131;42.630;23.382;2023-05-07T01:48:07;6.60;;;4.83;;
6195;SDS011;3131;42.630;23.382;2023-05-07T01:50:35;7.07;;;4.67;;
6195;SDS011;3131;42.630;23.382;2023-05-07T02:01:10;6.43;;;5.13;;
6195;SDS011;3131;42.630;23.382;2023-05-07T02:03:38;4.13;;;3.73;;
6195;SDS011;3131;42.630;23.382;2023-05-07T02:06:06;5.53;;;4.07;;
6195;SDS011;3131;42.630;23.382;2023-05-07T02:08:34;9.63;;;6.03;;
6195;SDS011;3131;42.630;23.382;2023-05-07T02:11:02;7.47;;;5.17;;
6195;SDS011;3131;42.630;23.382;2023-05-07T02:13:31;13.43;;;7.43;;
6195;SDS011;3131;42.630;23.382;2023-05-07T02:15:59;11.93;;;8.30;;
6195;SDS011;3131;42.630;23.382;2023-05-07T02:18:27;13.47;;;7.80;;
6195;SDS011;3131;42.630;23.382;2023-05-07T02:20:54;16.17;;;8.30;;
6195;SDS011;3131;42.630;23.382;2023-05-07T02:23:22;10.80;;;8.07;;
6195;SDS011;3131;42.630;23.382;2023-05-07T02:25:50;14.80;;;8.47;;
6195;SDS011;3131;42.630;23.382;2023-05-07T02:28:17;12.50;;;8.23;;
6195;SDS011;3131;42.630;23.382;2023-05-07T02:30:45;13.17;;;8.27;;
6195;SDS011;3131;42.630;23.382;2023-05-07T02:33:13;13.77;;;9.27;;
6195;SDS011;3131;42.630;23.382;2023-05-07T02:35:41;11.63;;;8.70;;
6195;SDS011;3131;42.630;23.382;2023-05-07T02:38:08;11.63;;;8.40;;
6195;SDS011;3131;42.630;23.382;2023-05-07T02:40:36;12.93;;;8.10;;
6195;SDS011;3131;42.630;23.382;2023-05-07T02:43:05;17.83;;;9.70;;
6195;SDS011;3131;42.630;23.382;2023-05-07T02:45:33;18.53;;;9.20;;
6195;SDS011;3131;42.630;23.382;2023-05-07T02:48:02;11.80;;;7.83;;
6195;SDS011;3131;42.630;23.382;2023-05-07T02:50:29;14.33;;;9.67;;
6195;SDS011;3131;42.630;23.382;2023-05-07T02:52:58;14.23;;;9.57;;
6195;SDS011;3131;42.630;23.382;2023-05-07T02:55:26;15.00;;;9.27;;
6195;SDS011;3131;42.630;23.382;2023-05-07T02:57:53;15.70;;;9.73;;
6195;SDS011;3131;42.630;23.382;2023-05-07T03:00:22;13.40;;;7.33;;
6195;SDS011;3131;42.630;23.382;2023-05-07T03:02:49;11.57;;;8.47;;
6195;SDS011;3131;42.630;23.382;2023-05-07T03:05:17;12.87;;;8.20;;
6195;SDS011;3131;42.630;23.382;2023-05-07T03:07:45;14.13;;;10.07;;
6195;SDS011;3131;42.630;23.382;2023-05-07T03:10:13;11.97;;;7.77;;
6195;SDS011;3131;42.630;23.382;2023-05-07T03:12:41;18.73;;;7.87;;
6195;SDS011;3131;42.630;23.382;2023-05-07T03:15:09;15.50;;;8.90;;
6195;SDS011;3131;42.630;23.382;2023-05-07T03:17:37;14.80;;;9.33;;
6195;SDS011;3131;42.630;23.382;2023-05-07T03:20:06;16.63;;;10.53;;
6195;SDS011;3131;42.630;23.382;2023-05-07T03:22:35;14.50;;;9.93;;
6195;SDS011;3131;42.630;23.382;2023-05-07T03:25:03;9.63;;;6.47;;
6195;SDS011;3131;42.630;23.382;2023-05-07T03:27:31;14.80;;;8.93;;
6195;SDS011;3131;42.630;23.382;2023-05-07T03:29:59;20.50;;;10.53;;
6195;SDS011;3131;42.630;23.382;2023-05-07T03:32:27;17.37;;;10.93;;
6195;SDS011;3131;42.630;23.382;2023-05-07T03:34:54;16.27;;;10.47;;
6195;SDS011;3131;42.630;23.382;2023-05-07T03:37:22;9.03;;;6.40;;
6195;SDS011;3131;42.630;23.382;2023-05-07T03:39:50;14.43;;;9.43;;
6195;SDS011;3131;42.630;23.382;2023-05-07T03:42:17;17.37;;;10.10;;
6195;SDS011;3131;42.630;23.382;2023-05-07T03:44:45;12.93;;;8.50;;
6195;SDS011;3131;42.630;23.382;2023-05-07T03:47:12;10.53;;;7.70;;
6195;SDS011;3131;42.630;23.382;2023-05-07T03:49:40;18.87;;;11.57;;
6195;SDS011;3131;42.630;23.382;2023-05-07T03:52:08;19.47;;;12.73;;
6195;SDS011;3131;42.630;23.382;2023-05-07T03:54:36;17.90;;;12.57;;
6195;SDS011;3131;42.630;23.382;2023-05-07T03:57:03;18.07;;;12.17;;
6195;SDS011;3131;42.630;23.382;2023-05-07T03:59:31;20.83;;;12.40;;
6195;SDS011;3131;42.630;23.382;2023-05-07T04:01:58;19.20;;;12.43;;
6195;SDS011;3131;42.630;23.382;2023-05-07T04:04:26;26.30;;;12.67;;
6195;SDS011;3131;42.630;23.382;2023-05-07T04:06:56;16.67;;;11.40;;
6195;SDS011;3131;42.630;23.382;2023-05-07T04:09:23;17.87;;;11.20;;
6195;SDS011;3131;42.630;23.382;2023-05-07T04:11:51;20.07;;;10.37;;
6195;SDS011;3131;42.630;23.382;2023-05-07T04:14:19;19.60;;;10.83;;
6195;SDS011;3131;42.630;23.382;2023-05-07T04:16:46;21.03;;;11.10;;
6195;SDS011;3131;42.630;23.382;2023-05-07T04:19:14;17.50;;;11.23;;
6195;SDS011;3131;42.630;23.382;2023-05-07T04:21:41;21.17;;;12.07;;
6195;SDS011;3131;42.630;23.382;2023-05-07T04:24:10;20.23;;;12.17;;
6195;SDS011;3131;42.630;23.382;2023-05-07T04:26:37;19.33;;;12.40;;
6195;SDS011;3131;42.630;23.382;2023-05-07T04:29:06;22.20;;;12.50;;
6195;SDS011;3131;42.630;23.382;2023-05-07T04:31:34;20.30;;;11.77;;
6195;SDS011;3131;42.630;23.382;2023-05-07T04:34:01;21.83;;;13.67;;
6195;SDS011;3131;42.630;23.382;2023-05-07T04:36:29;19.33;;;12.13;;
6195;SDS011;3131;42.630;23.382;2023-05-07T04:38:59;23.93;;;13.90;;
6195;SDS011;3131;42.630;23.382;2023-05-07T04:41:27;22.07;;;11.97;;
6195;SDS011;3131;42.630;23.382;2023-05-07T04:43:55;20.27;;;13.13;;
6195;SDS011;3131;42.630;23.382;2023-05-07T04:46:23;17.77;;;11.53;;
6195;SDS011;3131;42.630;23.382;2023-05-07T04:48:50;20.43;;;12.73;;
6195;SDS011;3131;42.630;23.382;2023-05-07T04:51:18;20.23;;;12.40;;
6195;SDS011;3131;42.630;23.382;2023-05-07T04:53:46;17.70;;;11.80;;
6195;SDS011;3131;42.630;23.382;2023-05-07T04:56:13;19.90;;;11.80;;
6195;SDS011;3131;42.630;23.382;2023-05-07T04:58:41;23.17;;;13.23;;
6195;SDS011;3131;42.630;23.382;2023-05-07T05:01:08;18.73;;;12.10;;
6195;SDS011;3131;42.630;23.382;2023-05-07T05:03:36;20.13;;;12.30;;
6195;SDS011;3131;42.630;23.382;2023-05-07T05:06:05;18.97;;;12.97;;
6195;SDS011;3131;42.630;23.382;2023-05-07T05:08:33;17.23;;;10.20;;
6195;SDS011;3131;42.630;23.382;2023-05-07T05:11:01;18.53;;;11.27;;
6195;SDS011;3131;42.630;23.382;2023-05-07T05:13:29;18.27;;;12.37;;
6195;SDS011;3131;42.630;23.382;2023-05-07T05:15:57;16.50;;;10.23;;
6195;SDS011;3131;42.630;23.382;2023-05-07T05:18:24;16.70;;;11.17;;
6195;SDS011;3131;42.630;23.382;2023-05-07T05:20:52;27.27;;;12.27;;
6195;SDS011;3131;42.630;23.382;2023-05-07T05:23:20;18.37;;;11.23;;
6195;SDS011;3131;42.630;23.382;2023-05-07T05:25:47;18.23;;;11.97;;
6195;SDS011;3131;42.630;23.382;2023-05-07T05:28:15;32.33;;;11.93;;
6195;SDS011;3131;42.630;23.382;2023-05-07T05:30:43;18.83;;;11.97;;
6195;SDS011;3131;42.630;23.382;2023-05-07T05:33:10;17.73;;;11.60;;
6195;SDS011;3131;42.630;23.382;2023-05-07T05:35:38;19.30;;;12.10;;
6195;SDS011;3131;42.630;23.382;2023-05-07T05:38:06;19.53;;;12.70;;
6195;SDS011;3131;42.630;23.382;2023-05-07T05:40:33;19.10;;;11.80;;
6195;SDS011;3131;42.630;23.382;2023-05-07T05:43:01;18.83;;;11.80;;
6195;SDS011;3131;42.630;23.382;2023-05-07T05:45:28;16.43;;;10.50;;
6195;SDS011;3131;42.630;23.382;2023-05-07T05:47:56;16.33;;;10.23;;
6195;SDS011;3131;42.630;23.382;2023-05-07T05:50:24;16.83;;;10.87;;
6195;SDS011;3131;42.630;23.382;2023-05-07T05:52:52;20.90;;;11.37;;
6195;SDS011;3131;42.630;23.382;2023-05-07T05:55:20;15.20;;;10.37;;
6195;SDS011;3131;42.630;23.382;2023-05-07T05:57:48;18.33;;;11.03;;
6195;SDS011;3131;42.630;23.382;2023-05-07T06:00:16;15.27;;;10.00;;
6195;SDS011;3131;42.630;23.382;2023-05-07T06:02:44;24.50;;;10.93;;
6195;SDS011;3131;42.630;23.382;2023-05-07T06:05:12;16.83;;;9.67;;
6195;SDS011;3131;42.630;23.382;2023-05-07T06:07:40;14.77;;;9.27;;
6195;SDS011;3131;42.630;23.382;2023-05-07T06:10:08;14.93;;;10.47;;
6195;SDS011;3131;42.630;23.382;2023-05-07T06:12:36;15.57;;;10.23;;
6195;SDS011;3131;42.630;23.382;2023-05-07T06:15:04;13.50;;;9.10;;
6195;SDS011;3131;42.630;23.382;2023-05-07T06:17:32;14.03;;;9.10;;
6195;SDS011;3131;42.630;23.382;2023-05-07T06:19:59;13.67;;;9.53;;
6195;SDS011;3131;42.630;23.382;2023-05-07T06:22:27;15.10;;;9.70;;
6195;SDS011;3131;42.630;23.382;2023-05-07T06:24:54;19.97;;;10.33;;
6195;SDS011;3131;42.630;23.382;2023-05-07T06:27:22;15.20;;;9.40;;
